sensor_id;sensor_type;location;lat;lon;timestamp;temperature;humidity
46416;DHT22;32620;51.704;7.822;2023-02-11T00:00:34;6.50;99.90
46416;DHT22;32620;51.704;7.822;2023-02-11T00:02:59;6.50;99.90
46416;DHT22;32620;51.704;7.822;2023-02-11T00:05:25;6.50;99.90
46416;DHT22;32620;51.704;7.822;2023-02-11T00:07:51;6.50;99.90
46416;DHT22;32620;51.704;7.822;2023-02-11T00:10:16;6.50;99.90
46416;DHT22;32620;51.704;7.822;2023-02-11T00:12:42;6.40;99.90
46416;DHT22;32620;51.704;7.822;2023-02-11T00:15:08;6.40;99.90
46416;DHT22;32620;51.704;7.822;2023-02-11T00:17:34;6.40;99.90
46416;DHT22;32620;51.704;7.822;2023-02-11T00:19:59;6.30;99.90
46416;DHT22;32620;51.704;7.822;2023-02-11T00:22:25;6.40;99.90
46416;DHT22;32620;51.704;7.822;2023-02-11T00:24:50;6.30;99.90
46416;DHT22;32620;51.704;7.822;2023-02-11T00:27:16;6.30;99.90
46416;DHT22;32620;51.704;7.822;2023-02-11T00:29:41;6.30;99.90
46416;DHT22;32620;51.704;7.822;2023-02-11T00:32:07;6.40;99.90
46416;DHT22;32620;51.704;7.822;2023-02-11T00:34:34;6.40;99.90
46416;DHT22;32620;51.704;7.822;2023-02-11T00:37:00;6.40;99.90
46416;DHT22;32620;51.704;7.822;2023-02-11T00:39:26;6.40;99.90
46416;DHT22;32620;51.704;7.822;2023-02-11T00:41:51;6.40;99.90
46416;DHT22;32620;51.704;7.822;2023-02-11T00:44:17;6.40;99.90
46416;DHT22;32620;51.704;7.822;2023-02-11T00:46:43;6.40;99.90
46416;DHT22;32620;51.704;7.822;2023-02-11T00:49:08;6.40;99.90
46416;DHT22;32620;51.704;7.822;2023-02-11T00:51:34;6.40;99.90
46416;DHT22;32620;51.704;7.822;2023-02-11T00:53:59;6.40;99.90
46416;DHT22;32620;51.704;7.822;2023-02-11T00:56:25;6.40;99.90
46416;DHT22;32620;51.704;7.822;2023-02-11T00:58:51;6.40;99.90
46416;DHT22;32620;51.704;7.822;2023-02-11T01:01:18;6.40;99.90
46416;DHT22;32620;51.704;7.822;2023-02-11T01:03:44;6.50;99.90
46416;DHT22;32620;51.704;7.822;2023-02-11T01:06:10;6.50;99.90
46416;DHT22;32620;51.704;7.822;2023-02-11T01:08:36;6.50;99.90
46416;DHT22;32620;51.704;7.822;2023-02-11T01:11:05;6.50;99.90
46416;DHT22;32620;51.704;7.822;2023-02-11T01:13:33;6.50;99.90
46416;DHT22;32620;51.704;7.822;2023-02-11T01:15:59;6.50;99.90
46416;DHT22;32620;51.704;7.822;2023-02-11T01:18:25;6.50;99.90
46416;DHT22;32620;51.704;7.822;2023-02-11T01:20:52;6.50;99.90
46416;DHT22;32620;51.704;7.822;2023-02-11T01:23:18;6.50;99.90
46416;DHT22;32620;51.704;7.822;2023-02-11T01:25:44;6.50;99.90
46416;DHT22;32620;51.704;7.822;2023-02-11T01:28:15;6.60;99.90
46416;DHT22;32620;51.704;7.822;2023-02-11T01:30:41;6.50;99.90
46416;DHT22;32620;51.704;7.822;2023-02-11T01:33:07;6.50;99.90
46416;DHT22;32620;51.704;7.822;2023-02-11T01:35:32;6.50;99.90
46416;DHT22;32620;51.704;7.822;2023-02-11T01:37:58;6.50;99.90
46416;DHT22;32620;51.704;7.822;2023-02-11T01:40:24;6.50;99.90
46416;DHT22;32620;51.704;7.822;2023-02-11T01:42:49;6.50;99.90
46416;DHT22;32620;51.704;7.822;2023-02-11T01:45:41;6.40;99.90
46416;DHT22;32620;51.704;7.822;2023-02-11T01:48:17;6.40;99.90
46416;DHT22;32620;51.704;7.822;2023-02-11T01:50:46;6.50;99.90
46416;DHT22;32620;51.704;7.822;2023-02-11T01:53:14;6.40;99.90
46416;DHT22;32620;51.704;7.822;2023-02-11T01:56:00;6.40;99.90
46416;DHT22;32620;51.704;7.822;2023-02-11T01:58:48;6.40;99.90
46416;DHT22;32620;51.704;7.822;2023-02-11T02:01:19;6.40;99.90
46416;DHT22;32620;51.704;7.822;2023-02-11T02:03:47;6.40;99.90
46416;DHT22;32620;51.704;7.822;2023-02-11T02:06:22;6.40;99.90
46416;DHT22;32620;51.704;7.822;2023-02-11T02:08:59;6.40;99.90
46416;DHT22;32620;51.704;7.822;2023-02-11T02:11:26;6.40;99.90
46416;DHT22;32620;51.704;7.822;2023-02-11T02:13:52;6.40;99.90
46416;DHT22;32620;51.704;7.822;2023-02-11T02:16:20;6.40;99.90
46416;DHT22;32620;51.704;7.822;2023-02-11T02:22:20;6.50;99.90
46416;DHT22;32620;51.704;7.822;2023-02-11T02:27:52;6.50;99.90
46416;DHT22;32620;51.704;7.822;2023-02-11T02:33:41;6.50;99.90
46416;DHT22;32620;51.704;7.822;2023-02-11T02:36:47;6.50;99.90
46416;DHT22;32620;51.704;7.822;2023-02-11T02:39:05;6.50;99.90
46416;DHT22;32620;51.704;7.822;2023-02-11T02:41:33;6.50;99.90
46416;DHT22;32620;51.704;7.822;2023-02-11T02:44:00;6.40;99.90
46416;DHT22;32620;51.704;7.822;2023-02-11T02:46:29;6.40;99.90
46416;DHT22;32620;51.704;7.822;2023-02-11T02:48:56;6.50;99.90
46416;DHT22;32620;51.704;7.822;2023-02-11T02:57:53;6.40;99.90
46416;DHT22;32620;51.704;7.822;2023-02-11T03:04:05;6.50;99.90
46416;DHT22;32620;51.704;7.822;2023-02-11T03:06:09;6.50;99.90
46416;DHT22;32620;51.704;7.822;2023-02-11T03:08:43;6.50;99.90
46416;DHT22;32620;51.704;7.822;2023-02-11T03:11:11;6.50;99.90
46416;DHT22;32620;51.704;7.822;2023-02-11T03:13:40;6.40;99.90
46416;DHT22;32620;51.704;7.822;2023-02-11T03:16:10;6.50;99.90
46416;DHT22;32620;51.704;7.822;2023-02-11T03:18:41;6.50;99.90
46416;DHT22;32620;51.704;7.822;2023-02-11T03:21:09;6.50;99.90
46416;DHT22;32620;51.704;7.822;2023-02-11T03:23:39;6.50;99.90
46416;DHT22;32620;51.704;7.822;2023-02-11T03:26:15;6.50;99.90
46416;DHT22;32620;51.704;7.822;2023-02-11T03:29:07;6.50;99.90
46416;DHT22;32620;51.704;7.822;2023-02-11T03:32:00;6.50;99.90
46416;DHT22;32620;51.704;7.822;2023-02-11T03:34:45;6.50;99.90
46416;DHT22;32620;51.704;7.822;2023-02-11T03:37:25;6.50;99.90
46416;DHT22;32620;51.704;7.822;2023-02-11T03:40:04;6.40;99.90
46416;DHT22;32620;51.704;7.822;2023-02-11T03:42:35;6.40;99.90
46416;DHT22;32620;51.704;7.822;2023-02-11T03:45:07;6.40;99.90
46416;DHT22;32620;51.704;7.822;2023-02-11T03:47:36;6.40;99.90
46416;DHT22;32620;51.704;7.822;2023-02-11T03:50:05;6.40;99.90
46416;DHT22;32620;51.704;7.822;2023-02-11T03:52:33;6.40;99.90
46416;DHT22;32620;51.704;7.822;2023-02-11T03:55:01;6.40;99.90
46416;DHT22;32620;51.704;7.822;2023-02-11T03:57:28;6.40;99.90
46416;DHT22;32620;51.704;7.822;2023-02-11T03:59:56;6.40;99.90
46416;DHT22;32620;51.704;7.822;2023-02-11T04:02:26;6.40;99.90
46416;DHT22;32620;51.704;7.822;2023-02-11T04:04:53;6.40;99.90
46416;DHT22;32620;51.704;7.822;2023-02-11T04:07:19;6.30;99.90
46416;DHT22;32620;51.704;7.822;2023-02-11T04:09:44;6.30;99.90
46416;DHT22;32620;51.704;7.822;2023-02-11T04:12:10;6.30;99.90
46416;DHT22;32620;51.704;7.822;2023-02-11T04:14:35;6.30;99.90
46416;DHT22;32620;51.704;7.822;2023-02-11T04:17:01;6.30;99.90
46416;DHT22;32620;51.704;7.822;2023-02-11T04:19:27;6.30;99.90
46416;DHT22;32620;51.704;7.822;2023-02-11T04:21:52;6.30;99.90
46416;DHT22;32620;51.704;7.822;2023-02-11T04:24:18;6.30;99.90
46416;DHT22;32620;51.704;7.822;2023-02-11T04:26:43;6.30;99.90
46416;DHT22;32620;51.704;7.822;2023-02-11T04:29:09;6.30;99.90
46416;DHT22;32620;51.704;7.822;2023-02-11T04:31:34;6.40;99.90
46416;DHT22;32620;51.704;7.822;2023-02-11T04:34:00;6.30;99.90
46416;DHT22;32620;51.704;7.822;2023-02-11T04:36:25;6.30;99.90
46416;DHT22;32620;51.704;7.822;2023-02-11T04:38:51;6.30;99.90
46416;DHT22;32620;51.704;7.822;2023-02-11T04:41:16;6.30;99.90
46416;DHT22;32620;51.704;7.822;2023-02-11T04:43:42;6.30;99.90
46416;DHT22;32620;51.704;7.822;2023-02-11T04:46:07;6.30;99.90
46416;DHT22;32620;51.704;7.822;2023-02-11T04:48:33;6.30;99.90
46416;DHT22;32620;51.704;7.822;2023-02-11T04:51:00;6.30;99.90
46416;DHT22;32620;51.704;7.822;2023-02-11T04:53:26;6.30;99.90
46416;DHT22;32620;51.704;7.822;2023-02-11T04:55:51;6.30;99.90
46416;DHT22;32620;51.704;7.822;2023-02-11T04:58:17;6.20;99.90
46416;DHT22;32620;51.704;7.822;2023-02-11T05:00:43;6.20;99.90
46416;DHT22;32620;51.704;7.822;2023-02-11T05:03:09;6.20;99.90
46416;DHT22;32620;51.704;7.822;2023-02-11T05:05:37;6.20;99.90
46416;DHT22;32620;51.704;7.822;2023-02-11T05:08:04;6.20;99.90
46416;DHT22;32620;51.704;7.822;2023-02-11T05:10:29;6.20;99.90
46416;DHT22;32620;51.704;7.822;2023-02-11T05:12:55;6.20;99.90
46416;DHT22;32620;51.704;7.822;2023-02-11T05:15:20;6.20;99.90
46416;DHT22;32620;51.704;7.822;2023-02-11T05:17:46;6.20;99.90
46416;DHT22;32620;51.704;7.822;2023-02-11T05:20:11;6.10;99.90
46416;DHT22;32620;51.704;7.822;2023-02-11T05:22:37;6.10;99.90
46416;DHT22;32620;51.704;7.822;2023-02-11T05:25:02;6.20;99.90
46416;DHT22;32620;51.704;7.822;2023-02-11T05:27:28;6.10;99.90
46416;DHT22;32620;51.704;7.822;2023-02-11T05:29:53;6.10;99.90
46416;DHT22;32620;51.704;7.822;2023-02-11T05:32:19;6.10;99.90
46416;DHT22;32620;51.704;7.822;2023-02-11T05:34:45;6.10;99.90
46416;DHT22;32620;51.704;7.822;2023-02-11T05:37:10;6.10;99.90
46416;DHT22;32620;51.704;7.822;2023-02-11T05:39:36;6.00;99.90
46416;DHT22;32620;51.704;7.822;2023-02-11T05:42:01;6.00;99.90
46416;DHT22;32620;51.704;7.822;2023-02-11T05:44:27;6.00;99.90
46416;DHT22;32620;51.704;7.822;2023-02-11T05:46:52;6.00;99.90
46416;DHT22;32620;51.704;7.822;2023-02-11T05:49:18;6.00;99.90
46416;DHT22;32620;51.704;7.822;2023-02-11T05:51:43;6.00;99.90
46416;DHT22;32620;51.704;7.822;2023-02-11T05:54:09;6.00;99.90
46416;DHT22;32620;51.704;7.822;2023-02-11T05:56:35;5.90;99.90
46416;DHT22;32620;51.704;7.822;2023-02-11T05:59:00;5.90;99.90
46416;DHT22;32620;51.704;7.822;2023-02-11T06:01:26;5.90;99.90
46416;DHT22;32620;51.704;7.822;2023-02-11T06:03:51;5.90;99.90
46416;DHT22;32620;51.704;7.822;2023-02-11T06:06:17;5.90;99.90
46416;DHT22;32620;51.704;7.822;2023-02-11T06:08:42;5.90;99.90
46416;DHT22;32620;51.704;7.822;2023-02-11T06:11:08;5.90;99.90
46416;DHT22;32620;51.704;7.822;2023-02-11T06:13:34;5.90;99.90
46416;DHT22;32620;51.704;7.822;2023-02-11T06:16:01;5.90;99.90
46416;DHT22;32620;51.704;7.822;2023-02-11T06:18:27;5.90;99.90
46416;DHT22;32620;51.704;7.822;2023-02-11T06:20:54;5.90;99.90
46416;DHT22;32620;51.704;7.822;2023-02-11T06:23:19;5.90;99.90
46416;DHT22;32620;51.704;7.822;2023-02-11T06:25:45;5.90;99.90
46416;DHT22;32620;51.704;7.822;2023-02-11T06:28:10;5.90;99.90
46416;DHT22;32620;51.704;7.822;2023-02-11T06:30:36;5.90;99.90
46416;DHT22;32620;51.704;7.822;2023-02-11T06:33:02;5.90;99.90
46416;DHT22;32620;51.704;7.822;2023-02-11T06:35:28;5.90;99.90
46416;DHT22;32620;51.704;7.822;2023-02-11T06:37:54;5.90;99.90
46416;DHT22;32620;51.704;7.822;2023-02-11T06:40:19;5.90;99.90
46416;DHT22;32620;51.704;7.822;2023-02-11T06:42:45;5.90;99.90
46416;DHT22;32620;51.704;7.822;2023-02-11T06:45:11;5.90;99.90
46416;DHT22;32620;51.704;7.822;2023-02-11T06:47:38;5.90;99.90
46416;DHT22;32620;51.704;7.822;2023-02-11T06:50:05;5.90;99.90
46416;DHT22;32620;51.704;7.822;2023-02-11T06:52:32;5.90;99.90
46416;DHT22;32620;51.704;7.822;2023-02-11T06:54:58;5.90;99.90
46416;DHT22;32620;51.704;7.822;2023-02-11T06:57:23;5.90;99.90
46416;DHT22;32620;51.704;7.822;2023-02-11T06:59:49;5.90;99.90
46416;DHT22;32620;51.704;7.822;2023-02-11T07:02:14;5.90;99.90
46416;DHT22;32620;51.704;7.822;2023-02-11T07:04:40;5.90;99.90
46416;DHT22;32620;51.704;7.822;2023-02-11T07:07:06;5.90;99.90
46416;DHT22;32620;51.704;7.822;2023-02-11T07:09:31;5.90;99.90
46416;DHT22;32620;51.704;7.822;2023-02-11T07:11:57;5.90;99.90
46416;DHT22;32620;51.704;7.822;2023-02-11T07:14:22;5.90;99.90
46416;DHT22;32620;51.704;7.822;2023-02-11T07:16:48;5.90;99.90
46416;DHT22;32620;51.704;7.822;2023-02-11T07:19:13;5.90;99.90
46416;DHT22;32620;51.704;7.822;2023-02-11T07:21:39;5.90;99.90
46416;DHT22;32620;51.704;7.822;2023-02-11T07:24:07;5.90;99.90
46416;DHT22;32620;51.704;7.822;2023-02-11T07:26:33;5.90;99.90
46416;DHT22;32620;51.704;7.822;2023-02-11T07:28:59;5.90;99.90
46416;DHT22;32620;51.704;7.822;2023-02-11T07:31:27;5.90;99.90
46416;DHT22;32620;51.704;7.822;2023-02-11T07:33:54;6.00;99.90
46416;DHT22;32620;51.704;7.822;2023-02-11T07:36:21;5.90;99.90
46416;DHT22;32620;51.704;7.822;2023-02-11T07:38:47;5.90;99.90
46416;DHT22;32620;51.704;7.822;2023-02-11T07:41:15;6.00;99.90
46416;DHT22;32620;51.704;7.822;2023-02-11T07:43:42;5.90;99.90
46416;DHT22;32620;51.704;7.822;2023-02-11T07:46:10;6.00;99.90
46416;DHT22;32620;51.704;7.822;2023-02-11T07:48:36;6.00;99.90
46416;DHT22;32620;51.704;7.822;2023-02-11T07:51:23;6.00;99.90
46416;DHT22;32620;51.704;7.822;2023-02-11T07:53:49;6.00;99.90
46416;DHT22;32620;51.704;7.822;2023-02-11T07:56:17;6.00;99.90
46416;DHT22;32620;51.704;7.822;2023-02-11T07:58:43;6.00;99.90
46416;DHT22;32620;51.704;7.822;2023-02-11T08:01:11;6.00;99.90
46416;DHT22;32620;51.704;7.822;2023-02-11T08:03:37;6.00;99.90
46416;DHT22;32620;51.704;7.822;2023-02-11T08:06:05;6.10;99.90
46416;DHT22;32620;51.704;7.822;2023-02-11T08:08:31;6.10;99.90
46416;DHT22;32620;51.704;7.822;2023-02-11T08:10:57;6.10;99.90
46416;DHT22;32620;51.704;7.822;2023-02-11T08:13:22;6.10;99.90
46416;DHT22;32620;51.704;7.822;2023-02-11T08:15:48;6.10;99.90
46416;DHT22;32620;51.704;7.822;2023-02-11T08:18:13;6.10;99.90
46416;DHT22;32620;51.704;7.822;2023-02-11T08:20:39;6.10;99.90
46416;DHT22;32620;51.704;7.822;2023-02-11T08:23:06;6.10;99.90
46416;DHT22;32620;51.704;7.822;2023-02-11T08:25:32;6.10;99.90
46416;DHT22;32620;51.704;7.822;2023-02-11T08:27:58;6.10;99.90
46416;DHT22;32620;51.704;7.822;2023-02-11T08:30:23;6.10;99.90
46416;DHT22;32620;51.704;7.822;2023-02-11T08:32:49;6.10;99.90
46416;DHT22;32620;51.704;7.822;2023-02-11T08:35:15;6.20;99.90
46416;DHT22;32620;51.704;7.822;2023-02-11T08:37:41;6.20;99.90
46416;DHT22;32620;51.704;7.822;2023-02-11T08:40:07;6.20;99.90
46416;DHT22;32620;51.704;7.822;2023-02-11T08:42:32;6.20;99.90
46416;DHT22;32620;51.704;7.822;2023-02-11T08:44:58;6.20;99.90
46416;DHT22;32620;51.704;7.822;2023-02-11T08:47:23;6.20;99.90
46416;DHT22;32620;51.704;7.822;2023-02-11T08:49:49;6.30;99.90
46416;DHT22;32620;51.704;7.822;2023-02-11T08:52:14;6.30;99.90
46416;DHT22;32620;51.704;7.822;2023-02-11T08:54:40;6.30;99.90
46416;DHT22;32620;51.704;7.822;2023-02-11T08:57:06;6.30;99.90
46416;DHT22;32620;51.704;7.822;2023-02-11T08:59:31;6.30;99.90
46416;DHT22;32620;51.704;7.822;2023-02-11T09:01:57;6.30;99.90
46416;DHT22;32620;51.704;7.822;2023-02-11T09:04:23;6.30;99.90
46416;DHT22;32620;51.704;7.822;2023-02-11T09:06:48;6.40;99.90
46416;DHT22;32620;51.704;7.822;2023-02-11T09:09:15;6.40;99.90
46416;DHT22;32620;51.704;7.822;2023-02-11T09:11:42;6.40;99.90
46416;DHT22;32620;51.704;7.822;2023-02-11T09:14:18;6.50;99.90
46416;DHT22;32620;51.704;7.822;2023-02-11T09:16:44;6.50;99.90
46416;DHT22;32620;51.704;7.822;2023-02-11T09:19:09;6.60;99.90
46416;DHT22;32620;51.704;7.822;2023-02-11T09:21:36;6.50;99.90
46416;DHT22;32620;51.704;7.822;2023-02-11T09:24:01;6.50;99.90
46416;DHT22;32620;51.704;7.822;2023-02-11T09:26:30;6.60;99.90
46416;DHT22;32620;51.704;7.822;2023-02-11T09:28:56;6.70;99.90
46416;DHT22;32620;51.704;7.822;2023-02-11T09:31:24;6.70;99.90
46416;DHT22;32620;51.704;7.822;2023-02-11T09:33:52;6.70;99.90
46416;DHT22;32620;51.704;7.822;2023-02-11T09:36:20;6.80;99.90
46416;DHT22;32620;51.704;7.822;2023-02-11T09:38:47;6.80;99.90
46416;DHT22;32620;51.704;7.822;2023-02-11T09:44:22;6.80;99.90
46416;DHT22;32620;51.704;7.822;2023-02-11T09:46:59;6.90;99.90
46416;DHT22;32620;51.704;7.822;2023-02-11T09:49:35;6.90;99.90
46416;DHT22;32620;51.704;7.822;2023-02-11T09:52:12;6.90;99.90
46416;DHT22;32620;51.704;7.822;2023-02-11T09:54:53;6.90;99.90
46416;DHT22;32620;51.704;7.822;2023-02-11T09:57:21;6.90;99.90
46416;DHT22;32620;51.704;7.822;2023-02-11T09:59:46;6.90;99.90
46416;DHT22;32620;51.704;7.822;2023-02-11T10:02:26;6.90;99.90
46416;DHT22;32620;51.704;7.822;2023-02-11T10:08:01;6.90;99.90
46416;DHT22;32620;51.704;7.822;2023-02-11T10:10:58;7.00;99.90
46416;DHT22;32620;51.704;7.822;2023-02-11T10:13:42;7.00;99.90
46416;DHT22;32620;51.704;7.822;2023-02-11T10:16:23;7.00;99.90
46416;DHT22;32620;51.704;7.822;2023-02-11T10:19:30;7.00;99.90
46416;DHT22;32620;51.704;7.822;2023-02-11T10:22:09;7.10;99.90
46416;DHT22;32620;51.704;7.822;2023-02-11T10:24:37;7.10;99.90
46416;DHT22;32620;51.704;7.822;2023-02-11T10:27:15;7.10;99.90
46416;DHT22;32620;51.704;7.822;2023-02-11T10:29:48;7.10;99.90
46416;DHT22;32620;51.704;7.822;2023-02-11T10:32:28;7.20;99.90
46416;DHT22;32620;51.704;7.822;2023-02-11T10:34:59;7.10;99.90
46416;DHT22;32620;51.704;7.822;2023-02-11T10:37:26;7.20;99.90
46416;DHT22;32620;51.704;7.822;2023-02-11T10:39:51;7.20;99.90
46416;DHT22;32620;51.704;7.822;2023-02-11T10:42:17;7.10;99.90
46416;DHT22;32620;51.704;7.822;2023-02-11T10:45:01;7.10;99.90
46416;DHT22;32620;51.704;7.822;2023-02-11T10:47:31;7.20;99.90
46416;DHT22;32620;51.704;7.822;2023-02-11T10:49:58;7.20;99.90
46416;DHT22;32620;51.704;7.822;2023-02-11T10:52:29;7.20;99.90
46416;DHT22;32620;51.704;7.822;2023-02-11T10:54:59;7.20;99.90
46416;DHT22;32620;51.704;7.822;2023-02-11T10:57:29;7.20;99.90
46416;DHT22;32620;51.704;7.822;2023-02-11T11:00:19;7.20;99.90
46416;DHT22;32620;51.704;7.822;2023-02-11T11:02:53;7.30;99.90
46416;DHT22;32620;51.704;7.822;2023-02-11T11:05:27;7.30;99.90
46416;DHT22;32620;51.704;7.822;2023-02-11T11:07:56;7.30;99.90
46416;DHT22;32620;51.704;7.822;2023-02-11T11:13:38;7.30;99.90
46416;DHT22;32620;51.704;7.822;2023-02-11T11:19:11;7.40;99.90
46416;DHT22;32620;51.704;7.822;2023-02-11T11:21:44;7.50;99.90
46416;DHT22;32620;51.704;7.822;2023-02-11T11:24:18;7.50;99.90
46416;DHT22;32620;51.704;7.822;2023-02-11T11:26:49;7.50;99.90
46416;DHT22;32620;51.704;7.822;2023-02-11T11:29:32;7.50;99.90
46416;DHT22;32620;51.704;7.822;2023-02-11T11:32:01;7.60;99.90
46416;DHT22;32620;51.704;7.822;2023-02-11T11:34:33;7.50;99.90
46416;DHT22;32620;51.704;7.822;2023-02-11T11:37:00;7.60;99.90
46416;DHT22;32620;51.704;7.822;2023-02-11T11:39:34;7.50;99.90
46416;DHT22;32620;51.704;7.822;2023-02-11T11:42:03;7.60;99.90
46416;DHT22;32620;51.704;7.822;2023-02-11T11:44:33;7.60;99.90
46416;DHT22;32620;51.704;7.822;2023-02-11T11:47:18;7.70;99.90
46416;DHT22;32620;51.704;7.822;2023-02-11T11:50:09;7.60;99.90
46416;DHT22;32620;51.704;7.822;2023-02-11T11:52:40;7.70;99.90
46416;DHT22;32620;51.704;7.822;2023-02-11T11:55:19;7.70;99.90
46416;DHT22;32620;51.704;7.822;2023-02-11T11:57:47;7.70;99.90
46416;DHT22;32620;51.704;7.822;2023-02-11T12:00:20;7.70;99.90
46416;DHT22;32620;51.704;7.822;2023-02-11T12:03:08;7.70;99.90
46416;DHT22;32620;51.704;7.822;2023-02-11T12:11:25;7.70;99.90
46416;DHT22;32620;51.704;7.822;2023-02-11T12:14:05;7.70;99.90
46416;DHT22;32620;51.704;7.822;2023-02-11T12:17:02;7.80;99.90
46416;DHT22;32620;51.704;7.822;2023-02-11T12:19:53;7.80;99.90
46416;DHT22;32620;51.704;7.822;2023-02-11T12:22:48;7.90;99.90
46416;DHT22;32620;51.704;7.822;2023-02-11T12:25:27;8.00;99.90
46416;DHT22;32620;51.704;7.822;2023-02-11T12:28:13;8.00;99.90
46416;DHT22;32620;51.704;7.822;2023-02-11T12:30:57;8.00;99.90
46416;DHT22;32620;51.704;7.822;2023-02-11T12:33:44;8.00;99.90
46416;DHT22;32620;51.704;7.822;2023-02-11T12:36:23;8.10;99.90
46416;DHT22;32620;51.704;7.822;2023-02-11T12:39:05;8.10;99.90
46416;DHT22;32620;51.704;7.822;2023-02-11T12:45:06;8.30;99.90
46416;DHT22;32620;51.704;7.822;2023-02-11T12:53:31;8.40;99.90
46416;DHT22;32620;51.704;7.822;2023-02-11T12:56:05;8.30;99.90
46416;DHT22;32620;51.704;7.822;2023-02-11T12:58:34;8.40;99.90
46416;DHT22;32620;51.704;7.822;2023-02-11T13:01:06;8.40;99.90
46416;DHT22;32620;51.704;7.822;2023-02-11T13:03:38;8.40;99.90
46416;DHT22;32620;51.704;7.822;2023-02-11T13:06:08;8.40;99.90
46416;DHT22;32620;51.704;7.822;2023-02-11T13:08:39;8.30;99.90
46416;DHT22;32620;51.704;7.822;2023-02-11T13:11:10;8.30;99.90
46416;DHT22;32620;51.704;7.822;2023-02-11T13:14:03;8.40;99.90
46416;DHT22;32620;51.704;7.822;2023-02-11T13:16:42;8.40;99.90
46416;DHT22;32620;51.704;7.822;2023-02-11T13:22:38;8.30;99.90
46416;DHT22;32620;51.704;7.822;2023-02-11T13:24:58;8.40;99.90
46416;DHT22;32620;51.704;7.822;2023-02-11T13:27:50;8.40;99.90
46416;DHT22;32620;51.704;7.822;2023-02-11T13:30:27;8.30;99.90
46416;DHT22;32620;51.704;7.822;2023-02-11T13:33:02;8.30;99.90
46416;DHT22;32620;51.704;7.822;2023-02-11T13:35:34;8.40;99.90
46416;DHT22;32620;51.704;7.822;2023-02-11T13:38:03;8.40;99.90
46416;DHT22;32620;51.704;7.822;2023-02-11T13:40:35;8.40;99.90
46416;DHT22;32620;51.704;7.822;2023-02-11T13:43:04;8.40;99.90
46416;DHT22;32620;51.704;7.822;2023-02-11T13:45:47;8.40;99.90
46416;DHT22;32620;51.704;7.822;2023-02-11T13:48:19;8.40;99.90
46416;DHT22;32620;51.704;7.822;2023-02-11T13:50:48;8.40;99.90
46416;DHT22;32620;51.704;7.822;2023-02-11T13:53:16;8.40;99.90
46416;DHT22;32620;51.704;7.822;2023-02-11T13:55:45;8.40;99.90
46416;DHT22;32620;51.704;7.822;2023-02-11T14:00:50;8.40;99.90
46416;DHT22;32620;51.704;7.822;2023-02-11T14:03:29;8.50;99.90
46416;DHT22;32620;51.704;7.822;2023-02-11T14:06:18;8.50;99.90
46416;DHT22;32620;51.704;7.822;2023-02-11T14:09:32;8.50;99.90
46416;DHT22;32620;51.704;7.822;2023-02-11T14:12:15;8.60;99.90
46416;DHT22;32620;51.704;7.822;2023-02-11T14:17:41;8.60;99.90
46416;DHT22;32620;51.704;7.822;2023-02-11T14:20:31;8.60;99.90
46416;DHT22;32620;51.704;7.822;2023-02-11T14:22:58;8.60;99.90
46416;DHT22;32620;51.704;7.822;2023-02-11T14:25:25;8.60;99.90
46416;DHT22;32620;51.704;7.822;2023-02-11T14:27:59;8.60;99.90
46416;DHT22;32620;51.704;7.822;2023-02-11T14:30:33;8.60;99.90
46416;DHT22;32620;51.704;7.822;2023-02-11T14:37:01;8.70;99.90
46416;DHT22;32620;51.704;7.822;2023-02-11T14:39:21;8.70;99.90
46416;DHT22;32620;51.704;7.822;2023-02-11T14:41:50;8.70;99.90
46416;DHT22;32620;51.704;7.822;2023-02-11T14:44:19;8.70;99.90
46416;DHT22;32620;51.704;7.822;2023-02-11T14:46:47;8.70;99.90
46416;DHT22;32620;51.704;7.822;2023-02-11T14:49:28;8.70;99.90
46416;DHT22;32620;51.704;7.822;2023-02-11T14:51:58;8.70;99.90
46416;DHT22;32620;51.704;7.822;2023-02-11T14:54:27;8.80;99.90
46416;DHT22;32620;51.704;7.822;2023-02-11T14:57:14;8.80;99.90
46416;DHT22;32620;51.704;7.822;2023-02-11T14:59:55;8.80;99.90
46416;DHT22;32620;51.704;7.822;2023-02-11T15:02:27;8.80;99.90
46416;DHT22;32620;51.704;7.822;2023-02-11T15:04:53;8.80;99.90
46416;DHT22;32620;51.704;7.822;2023-02-11T15:07:20;8.90;99.90
46416;DHT22;32620;51.704;7.822;2023-02-11T15:09:50;8.80;99.90
46416;DHT22;32620;51.704;7.822;2023-02-11T15:12:23;8.90;99.90
46416;DHT22;32620;51.704;7.822;2023-02-11T15:14:50;8.90;99.90
46416;DHT22;32620;51.704;7.822;2023-02-11T15:17:21;8.80;99.90
46416;DHT22;32620;51.704;7.822;2023-02-11T15:19:50;8.80;99.90
46416;DHT22;32620;51.704;7.822;2023-02-11T15:22:21;8.80;99.90
46416;DHT22;32620;51.704;7.822;2023-02-11T15:24:58;8.80;99.90
46416;DHT22;32620;51.704;7.822;2023-02-11T15:27:24;8.80;99.90
46416;DHT22;32620;51.704;7.822;2023-02-11T15:29:50;8.80;99.90
46416;DHT22;32620;51.704;7.822;2023-02-11T15:32:21;8.80;99.90
46416;DHT22;32620;51.704;7.822;2023-02-11T15:34:48;8.80;99.90
46416;DHT22;32620;51.704;7.822;2023-02-11T15:37:22;8.80;99.90
46416;DHT22;32620;51.704;7.822;2023-02-11T15:39:48;8.70;99.90
46416;DHT22;32620;51.704;7.822;2023-02-11T15:42:30;8.70;99.90
46416;DHT22;32620;51.704;7.822;2023-02-11T15:47:48;8.70;99.90
46416;DHT22;32620;51.704;7.822;2023-02-11T15:50:22;8.60;99.90
46416;DHT22;32620;51.704;7.822;2023-02-11T15:52:49;8.60;99.90
46416;DHT22;32620;51.704;7.822;2023-02-11T15:55:15;8.60;99.90
46416;DHT22;32620;51.704;7.822;2023-02-11T15:57:44;8.50;99.90
46416;DHT22;32620;51.704;7.822;2023-02-11T16:00:16;8.50;99.90
46416;DHT22;32620;51.704;7.822;2023-02-11T16:02:44;8.50;99.90
46416;DHT22;32620;51.704;7.822;2023-02-11T16:05:32;8.50;99.90
46416;DHT22;32620;51.704;7.822;2023-02-11T16:08:00;8.50;99.90
46416;DHT22;32620;51.704;7.822;2023-02-11T16:10:28;8.50;99.90
46416;DHT22;32620;51.704;7.822;2023-02-11T16:15:41;8.50;99.90
46416;DHT22;32620;51.704;7.822;2023-02-11T16:18:25;8.50;99.90
46416;DHT22;32620;51.704;7.822;2023-02-11T16:20:52;8.50;99.90
46416;DHT22;32620;51.704;7.822;2023-02-11T16:23:23;8.50;99.90
46416;DHT22;32620;51.704;7.822;2023-02-11T16:26:01;8.50;99.90
46416;DHT22;32620;51.704;7.822;2023-02-11T16:28:30;8.40;99.90
46416;DHT22;32620;51.704;7.822;2023-02-11T16:30:56;8.40;99.90
46416;DHT22;32620;51.704;7.822;2023-02-11T16:33:22;8.40;99.90
46416;DHT22;32620;51.704;7.822;2023-02-11T16:35:47;8.40;99.90
46416;DHT22;32620;51.704;7.822;2023-02-11T16:38:14;8.40;99.90
46416;DHT22;32620;51.704;7.822;2023-02-11T16:40:40;8.40;99.90
46416;DHT22;32620;51.704;7.822;2023-02-11T16:43:07;8.40;99.90
46416;DHT22;32620;51.704;7.822;2023-02-11T16:45:37;8.40;99.90
46416;DHT22;32620;51.704;7.822;2023-02-11T16:48:05;8.40;99.90
46416;DHT22;32620;51.704;7.822;2023-02-11T16:50:31;8.40;99.90
46416;DHT22;32620;51.704;7.822;2023-02-11T16:52:57;8.40;99.90
46416;DHT22;32620;51.704;7.822;2023-02-11T16:55:23;8.40;99.90
46416;DHT22;32620;51.704;7.822;2023-02-11T16:57:49;8.40;99.90
46416;DHT22;32620;51.704;7.822;2023-02-11T17:00:16;8.40;99.90
46416;DHT22;32620;51.704;7.822;2023-02-11T17:02:42;8.40;99.90
46416;DHT22;32620;51.704;7.822;2023-02-11T17:05:15;8.40;99.90
46416;DHT22;32620;51.704;7.822;2023-02-11T17:07:41;8.30;99.90